sensor_id;sensor_type;location;lat;lon;timestamp;P1;durP1;ratioP1;P2;durP2;ratioP2
77612;SDS011;66777;52.282;5.960;2023-02-12T00:00:32;18.42;;;7.88;;
77612;SDS011;66777;52.282;5.960;2023-02-12T00:02:58;22.35;;;8.75;;
77612;SDS011;66777;52.282;5.960;2023-02-12T00:05:24;18.25;;;8.73;;
77612;SDS011;66777;52.282;5.960;2023-02-12T00:07:49;17.98;;;8.10;;
77612;SDS011;66777;52.282;5.960;2023-02-12T00:10:16;21.27;;;8.25;;
77612;SDS011;66777;52.282;5.960;2023-02-12T00:12:41;17.65;;;7.82;;
77612;SDS011;66777;52.282;5.960;2023-02-12T00:15:07;25.13;;;8.38;;
77612;SDS011;66777;52.282;5.960;2023-02-12T00:17:33;20.20;;;8.40;;
77612;SDS011;66777;52.282;5.960;2023-02-12T00:19:58;21.08;;;8.43;;
77612;SDS011;66777;52.282;5.960;2023-02-12T00:22:25;19.77;;;8.75;;
77612;SDS011;66777;52.282;5.960;2023-02-12T00:24:52;23.65;;;8.77;;
77612;SDS011;66777;52.282;5.960;2023-02-12T00:27:18;21.40;;;8.45;;
77612;SDS011;66777;52.282;5.960;2023-02-12T00:29:45;21.85;;;10.27;;
77612;SDS011;66777;52.282;5.960;2023-02-12T00:32:11;23.70;;;8.90;;
77612;SDS011;66777;52.282;5.960;2023-02-12T00:34:39;25.48;;;8.75;;
77612;SDS011;66777;52.282;5.960;2023-02-12T00:37:05;26.65;;;8.82;;
77612;SDS011;66777;52.282;5.960;2023-02-12T00:39:31;21.95;;;9.27;;
77612;SDS011;66777;52.282;5.960;2023-02-12T00:41:57;23.27;;;9.93;;
77612;SDS011;66777;52.282;5.960;2023-02-12T00:44:22;24.90;;;8.52;;
77612;SDS011;66777;52.282;5.960;2023-02-12T00:46:48;22.67;;;9.35;;
77612;SDS011;66777;52.282;5.960;2023-02-12T00:49:14;22.15;;;8.77;;
77612;SDS011;66777;52.282;5.960;2023-02-12T00:51:40;23.70;;;8.38;;
77612;SDS011;66777;52.282;5.960;2023-02-12T00:54:05;19.20;;;8.48;;
77612;SDS011;66777;52.282;5.960;2023-02-12T00:56:31;23.33;;;8.40;;
77612;SDS011;66777;52.282;5.960;2023-02-12T00:58:57;24.83;;;8.82;;
77612;SDS011;66777;52.282;5.960;2023-02-12T01:01:23;23.75;;;8.45;;
77612;SDS011;66777;52.282;5.960;2023-02-12T01:03:49;25.33;;;11.05;;
77612;SDS011;66777;52.282;5.960;2023-02-12T01:06:15;24.58;;;8.80;;
77612;SDS011;66777;52.282;5.960;2023-02-12T01:08:41;25.30;;;9.48;;
77612;SDS011;66777;52.282;5.960;2023-02-12T01:11:06;23.15;;;9.55;;
77612;SDS011;66777;52.282;5.960;2023-02-12T01:13:32;22.00;;;9.18;;
77612;SDS011;66777;52.282;5.960;2023-02-12T01:16:12;23.45;;;9.10;;
77612;SDS011;66777;52.282;5.960;2023-02-12T01:18:40;22.40;;;9.07;;
77612;SDS011;66777;52.282;5.960;2023-02-12T01:21:17;25.00;;;9.13;;
77612;SDS011;66777;52.282;5.960;2023-02-12T01:23:48;23.40;;;9.07;;
77612;SDS011;66777;52.282;5.960;2023-02-12T01:26:14;25.00;;;8.98;;
77612;SDS011;66777;52.282;5.960;2023-02-12T01:28:42;24.55;;;9.00;;
77612;SDS011;66777;52.282;5.960;2023-02-12T01:31:14;20.50;;;8.10;;
77612;SDS011;66777;52.282;5.960;2023-02-12T01:33:41;23.48;;;9.02;;
77612;SDS011;66777;52.282;5.960;2023-02-12T01:36:07;24.45;;;8.77;;
77612;SDS011;66777;52.282;5.960;2023-02-12T01:38:34;25.13;;;8.70;;
77612;SDS011;66777;52.282;5.960;2023-02-12T01:41:01;26.45;;;9.65;;
77612;SDS011;66777;52.282;5.960;2023-02-12T01:43:28;23.85;;;8.77;;
77612;SDS011;66777;52.282;5.960;2023-02-12T01:45:54;26.02;;;9.00;;
77612;SDS011;66777;52.282;5.960;2023-02-12T01:48:23;27.73;;;9.73;;
77612;SDS011;66777;52.282;5.960;2023-02-12T01:50:51;29.27;;;9.63;;
77612;SDS011;66777;52.282;5.960;2023-02-12T01:53:18;23.27;;;9.00;;
77612;SDS011;66777;52.282;5.960;2023-02-12T01:55:52;23.30;;;9.27;;
77612;SDS011;66777;52.282;5.960;2023-02-12T01:58:22;26.40;;;11.00;;
77612;SDS011;66777;52.282;5.960;2023-02-12T02:00:51;27.80;;;10.48;;
77612;SDS011;66777;52.282;5.960;2023-02-12T02:03:17;25.20;;;9.60;;
77612;SDS011;66777;52.282;5.960;2023-02-12T02:05:49;25.10;;;8.82;;
77612;SDS011;66777;52.282;5.960;2023-02-12T02:08:30;26.17;;;9.00;;
77612;SDS011;66777;52.282;5.960;2023-02-12T02:10:57;23.02;;;8.30;;
77612;SDS011;66777;52.282;5.960;2023-02-12T02:13:23;21.50;;;7.65;;
77612;SDS011;66777;52.282;5.960;2023-02-12T02:16:18;20.70;;;8.02;;
77612;SDS011;66777;52.282;5.960;2023-02-12T02:18:51;21.33;;;8.68;;
77612;SDS011;66777;52.282;5.960;2023-02-12T02:21:30;25.75;;;8.55;;
77612;SDS011;66777;52.282;5.960;2023-02-12T02:24:36;26.88;;;8.48;;
77612;SDS011;66777;52.282;5.960;2023-02-12T02:27:23;22.15;;;8.35;;
77612;SDS011;66777;52.282;5.960;2023-02-12T02:33:10;21.83;;;8.52;;
77612;SDS011;66777;52.282;5.960;2023-02-12T02:35:55;20.55;;;8.57;;
77612;SDS011;66777;52.282;5.960;2023-02-12T02:41:36;21.35;;;8.60;;
77612;SDS011;66777;52.282;5.960;2023-02-12T02:44:09;20.40;;;8.48;;
77612;SDS011;66777;52.282;5.960;2023-02-12T02:46:59;22.77;;;8.43;;
77612;SDS011;66777;52.282;5.960;2023-02-12T02:49:31;19.35;;;8.40;;
77612;SDS011;66777;52.282;5.960;2023-02-12T02:52:06;27.55;;;8.98;;
77612;SDS011;66777;52.282;5.960;2023-02-12T02:54:36;22.50;;;8.52;;
77612;SDS011;66777;52.282;5.960;2023-02-12T02:57:13;19.70;;;7.78;;
77612;SDS011;66777;52.282;5.960;2023-02-12T02:59:47;23.48;;;8.57;;
77612;SDS011;66777;52.282;5.960;2023-02-12T03:02:25;20.55;;;8.70;;
77612;SDS011;66777;52.282;5.960;2023-02-12T03:05:13;20.48;;;8.43;;
77612;SDS011;66777;52.282;5.960;2023-02-12T03:07:50;20.25;;;8.55;;
77612;SDS011;66777;52.282;5.960;2023-02-12T03:10:25;21.73;;;7.97;;
77612;SDS011;66777;52.282;5.960;2023-02-12T03:13:11;17.65;;;8.00;;
77612;SDS011;66777;52.282;5.960;2023-02-12T03:15:47;19.27;;;8.85;;
77612;SDS011;66777;52.282;5.960;2023-02-12T03:18:24;23.50;;;7.82;;
77612;SDS011;66777;52.282;5.960;2023-02-12T03:20:57;20.30;;;8.07;;
77612;SDS011;66777;52.282;5.960;2023-02-12T03:23:36;19.30;;;7.95;;
77612;SDS011;66777;52.282;5.960;2023-02-12T03:26:26;21.88;;;8.38;;
77612;SDS011;66777;52.282;5.960;2023-02-12T03:29:01;24.75;;;10.07;;
77612;SDS011;66777;52.282;5.960;2023-02-12T03:34:06;19.40;;;7.00;;
77612;SDS011;66777;52.282;5.960;2023-02-12T03:36:50;22.60;;;8.48;;
77612;SDS011;66777;52.282;5.960;2023-02-12T03:39:44;25.80;;;8.63;;
77612;SDS011;66777;52.282;5.960;2023-02-12T03:52:46;22.60;;;7.13;;
77612;SDS011;66777;52.282;5.960;2023-02-12T03:55:15;21.85;;;7.80;;
77612;SDS011;66777;52.282;5.960;2023-02-12T03:57:46;18.75;;;7.40;;
77612;SDS011;66777;52.282;5.960;2023-02-12T04:00:20;19.60;;;7.97;;
77612;SDS011;66777;52.282;5.960;2023-02-12T04:02:47;20.90;;;8.13;;
77612;SDS011;66777;52.282;5.960;2023-02-12T04:05:24;22.67;;;7.25;;
77612;SDS011;66777;52.282;5.960;2023-02-12T04:07:51;19.45;;;7.15;;
77612;SDS011;66777;52.282;5.960;2023-02-12T04:10:30;22.25;;;7.00;;
77612;SDS011;66777;52.282;5.960;2023-02-12T04:14:00;18.92;;;7.25;;
77612;SDS011;66777;52.282;5.960;2023-02-12T04:19:06;22.20;;;7.97;;
77612;SDS011;66777;52.282;5.960;2023-02-12T04:29:44;19.83;;;7.35;;
77612;SDS011;66777;52.282;5.960;2023-02-12T04:37:50;20.27;;;7.75;;
77612;SDS011;66777;52.282;5.960;2023-02-12T04:40:39;17.40;;;7.07;;
77612;SDS011;66777;52.282;5.960;2023-02-12T04:43:06;21.48;;;8.02;;
77612;SDS011;66777;52.282;5.960;2023-02-12T04:45:33;19.80;;;7.97;;
77612;SDS011;66777;52.282;5.960;2023-02-12T04:48:00;24.33;;;8.55;;
77612;SDS011;66777;52.282;5.960;2023-02-12T04:50:26;21.77;;;8.00;;
77612;SDS011;66777;52.282;5.960;2023-02-12T04:53:01;20.83;;;7.53;;
77612;SDS011;66777;52.282;5.960;2023-02-12T04:55:26;20.98;;;7.78;;
77612;SDS011;66777;52.282;5.960;2023-02-12T04:57:52;22.50;;;7.72;;
77612;SDS011;66777;52.282;5.960;2023-02-12T05:00:18;21.80;;;8.40;;
77612;SDS011;66777;52.282;5.960;2023-02-12T05:02:44;22.55;;;8.77;;
77612;SDS011;66777;52.282;5.960;2023-02-12T05:05:10;22.73;;;8.30;;
77612;SDS011;66777;52.282;5.960;2023-02-12T05:07:36;20.30;;;7.35;;
77612;SDS011;66777;52.282;5.960;2023-02-12T05:10:01;15.90;;;6.72;;
77612;SDS011;66777;52.282;5.960;2023-02-12T05:12:27;16.63;;;6.90;;
77612;SDS011;66777;52.282;5.960;2023-02-12T05:14:53;19.98;;;6.78;;
77612;SDS011;66777;52.282;5.960;2023-02-12T05:17:21;18.95;;;6.88;;
77612;SDS011;66777;52.282;5.960;2023-02-12T05:19:47;20.38;;;7.85;;
77612;SDS011;66777;52.282;5.960;2023-02-12T05:22:13;19.23;;;8.00;;
77612;SDS011;66777;52.282;5.960;2023-02-12T05:24:39;19.30;;;7.85;;
77612;SDS011;66777;52.282;5.960;2023-02-12T05:27:04;23.25;;;7.85;;
77612;SDS011;66777;52.282;5.960;2023-02-12T05:29:32;18.27;;;7.85;;
77612;SDS011;66777;52.282;5.960;2023-02-12T05:31:58;19.27;;;7.32;;
77612;SDS011;66777;52.282;5.960;2023-02-12T05:34:24;21.55;;;8.27;;
77612;SDS011;66777;52.282;5.960;2023-02-12T05:36:50;20.00;;;7.40;;
77612;SDS011;66777;52.282;5.960;2023-02-12T05:39:16;22.70;;;7.55;;
77612;SDS011;66777;52.282;5.960;2023-02-12T05:41:42;20.88;;;7.18;;
77612;SDS011;66777;52.282;5.960;2023-02-12T05:44:07;30.23;;;8.48;;
77612;SDS011;66777;52.282;5.960;2023-02-12T05:46:36;28.98;;;8.25;;
77612;SDS011;66777;52.282;5.960;2023-02-12T05:49:03;20.92;;;7.22;;
77612;SDS011;66777;52.282;5.960;2023-02-12T05:51:29;20.40;;;6.85;;
77612;SDS011;66777;52.282;5.960;2023-02-12T05:53:57;24.92;;;7.80;;
77612;SDS011;66777;52.282;5.960;2023-02-12T05:56:27;18.95;;;6.93;;
77612;SDS011;66777;52.282;5.960;2023-02-12T05:59:05;22.05;;;7.35;;
77612;SDS011;66777;52.282;5.960;2023-02-12T06:01:36;19.55;;;7.30;;
77612;SDS011;66777;52.282;5.960;2023-02-12T06:04:05;27.02;;;8.40;;
77612;SDS011;66777;52.282;5.960;2023-02-12T06:09:00;17.55;;;7.35;;
77612;SDS011;66777;52.282;5.960;2023-02-12T06:11:27;21.80;;;7.20;;
77612;SDS011;66777;52.282;5.960;2023-02-12T06:13:52;23.85;;;7.57;;
77612;SDS011;66777;52.282;5.960;2023-02-12T06:16:22;19.73;;;8.18;;
77612;SDS011;66777;52.282;5.960;2023-02-12T06:18:50;23.45;;;8.63;;
77612;SDS011;66777;52.282;5.960;2023-02-12T06:21:17;29.13;;;10.13;;
77612;SDS011;66777;52.282;5.960;2023-02-12T06:23:44;27.85;;;10.38;;
77612;SDS011;66777;52.282;5.960;2023-02-12T06:26:11;26.48;;;9.65;;
77612;SDS011;66777;52.282;5.960;2023-02-12T06:28:38;25.52;;;9.70;;
77612;SDS011;66777;52.282;5.960;2023-02-12T06:31:04;24.25;;;9.65;;
77612;SDS011;66777;52.282;5.960;2023-02-12T06:33:50;20.02;;;7.75;;
77612;SDS011;66777;52.282;5.960;2023-02-12T06:36:18;26.00;;;8.75;;
77612;SDS011;66777;52.282;5.960;2023-02-12T06:38:44;23.42;;;7.32;;
77612;SDS011;66777;52.282;5.960;2023-02-12T06:41:10;24.15;;;8.73;;
77612;SDS011;66777;52.282;5.960;2023-02-12T06:43:37;21.92;;;8.65;;
77612;SDS011;66777;52.282;5.960;2023-02-12T06:46:03;24.90;;;8.63;;
77612;SDS011;66777;52.282;5.960;2023-02-12T06:48:29;24.25;;;9.35;;
77612;SDS011;66777;52.282;5.960;2023-02-12T06:50:55;21.63;;;8.75;;
77612;SDS011;66777;52.282;5.960;2023-02-12T06:53:20;23.42;;;8.05;;
77612;SDS011;66777;52.282;5.960;2023-02-12T06:55:46;20.13;;;8.07;;
77612;SDS011;66777;52.282;5.960;2023-02-12T06:58:12;23.92;;;8.43;;
77612;SDS011;66777;52.282;5.960;2023-02-12T07:00:38;25.67;;;10.18;;
77612;SDS011;66777;52.282;5.960;2023-02-12T07:03:04;20.58;;;7.70;;
77612;SDS011;66777;52.282;5.960;2023-02-12T07:05:30;23.83;;;8.15;;
77612;SDS011;66777;52.282;5.960;2023-02-12T07:07:56;22.25;;;7.78;;
77612;SDS011;66777;52.282;5.960;2023-02-12T07:10:22;21.65;;;8.30;;
77612;SDS011;66777;52.282;5.960;2023-02-12T07:12:48;21.73;;;8.15;;
77612;SDS011;66777;52.282;5.960;2023-02-12T07:15:14;20.73;;;7.88;;
77612;SDS011;66777;52.282;5.960;2023-02-12T07:17:41;20.98;;;7.45;;
77612;SDS011;66777;52.282;5.960;2023-02-12T07:20:06;23.45;;;8.15;;
77612;SDS011;66777;52.282;5.960;2023-02-12T07:22:36;27.00;;;10.02;;
77612;SDS011;66777;52.282;5.960;2023-02-12T07:25:01;25.90;;;8.00;;
77612;SDS011;66777;52.282;5.960;2023-02-12T07:27:28;22.27;;;9.18;;
77612;SDS011;66777;52.282;5.960;2023-02-12T07:29:54;25.00;;;9.38;;
77612;SDS011;66777;52.282;5.960;2023-02-12T07:32:20;19.55;;;8.38;;
77612;SDS011;66777;52.282;5.960;2023-02-12T07:34:45;22.88;;;8.15;;
77612;SDS011;66777;52.282;5.960;2023-02-12T07:37:11;21.60;;;8.43;;
77612;SDS011;66777;52.282;5.960;2023-02-12T07:39:37;25.45;;;10.02;;
77612;SDS011;66777;52.282;5.960;2023-02-12T07:42:03;23.45;;;9.18;;
77612;SDS011;66777;52.282;5.960;2023-02-12T07:44:28;27.70;;;10.13;;
77612;SDS011;66777;52.282;5.960;2023-02-12T07:46:55;22.48;;;8.73;;
77612;SDS011;66777;52.282;5.960;2023-02-12T07:49:21;21.58;;;8.75;;
77612;SDS011;66777;52.282;5.960;2023-02-12T07:51:47;22.00;;;8.73;;
77612;SDS011;66777;52.282;5.960;2023-02-12T07:54:14;23.92;;;9.75;;
77612;SDS011;66777;52.282;5.960;2023-02-12T07:56:41;25.98;;;9.43;;
77612;SDS011;66777;52.282;5.960;2023-02-12T07:59:11;29.38;;;10.38;;
77612;SDS011;66777;52.282;5.960;2023-02-12T08:01:38;23.65;;;8.52;;
77612;SDS011;66777;52.282;5.960;2023-02-12T08:04:15;25.75;;;9.65;;
77612;SDS011;66777;52.282;5.960;2023-02-12T08:06:44;23.60;;;8.48;;
77612;SDS011;66777;52.282;5.960;2023-02-12T08:09:13;26.90;;;9.57;;
77612;SDS011;66777;52.282;5.960;2023-02-12T08:11:43;23.92;;;9.77;;
77612;SDS011;66777;52.282;5.960;2023-02-12T08:14:14;26.17;;;10.73;;
77612;SDS011;66777;52.282;5.960;2023-02-12T08:16:41;21.65;;;9.15;;
77612;SDS011;66777;52.282;5.960;2023-02-12T08:19:08;31.20;;;10.80;;
77612;SDS011;66777;52.282;5.960;2023-02-12T08:21:35;25.40;;;10.10;;
77612;SDS011;66777;52.282;5.960;2023-02-12T08:24:01;31.98;;;10.75;;
77612;SDS011;66777;52.282;5.960;2023-02-12T08:29:11;25.73;;;10.63;;
77612;SDS011;66777;52.282;5.960;2023-02-12T08:31:39;31.50;;;12.00;;
77612;SDS011;66777;52.282;5.960;2023-02-12T08:34:11;28.77;;;10.38;;
77612;SDS011;66777;52.282;5.960;2023-02-12T08:36:45;27.23;;;10.20;;
77612;SDS011;66777;52.282;5.960;2023-02-12T08:39:14;31.30;;;11.02;;
77612;SDS011;66777;52.282;5.960;2023-02-12T08:41:41;28.63;;;10.70;;
77612;SDS011;66777;52.282;5.960;2023-02-12T08:44:07;29.80;;;11.23;;
77612;SDS011;66777;52.282;5.960;2023-02-12T08:46:35;28.45;;;10.50;;
77612;SDS011;66777;52.282;5.960;2023-02-12T08:49:04;26.73;;;11.95;;
77612;SDS011;66777;52.282;5.960;2023-02-12T08:51:32;30.08;;;11.48;;
77612;SDS011;66777;52.282;5.960;2023-02-12T08:54:02;30.50;;;11.55;;
77612;SDS011;66777;52.282;5.960;2023-02-12T08:56:30;31.35;;;11.82;;
77612;SDS011;66777;52.282;5.960;2023-02-12T08:58:59;29.13;;;11.25;;
77612;SDS011;66777;52.282;5.960;2023-02-12T09:01:27;26.75;;;10.98;;
77612;SDS011;66777;52.282;5.960;2023-02-12T09:03:55;26.15;;;10.65;;
77612;SDS011;66777;52.282;5.960;2023-02-12T09:06:21;30.50;;;12.18;;
77612;SDS011;66777;52.282;5.960;2023-02-12T09:08:50;27.30;;;10.25;;
77612;SDS011;66777;52.282;5.960;2023-02-12T09:11:22;31.25;;;12.15;;
77612;SDS011;66777;52.282;5.960;2023-02-12T09:13:55;28.15;;;11.25;;
77612;SDS011;66777;52.282;5.960;2023-02-12T09:16:26;27.17;;;11.07;;
77612;SDS011;66777;52.282;5.960;2023-02-12T09:18:52;28.33;;;11.15;;
77612;SDS011;66777;52.282;5.960;2023-02-12T09:21:19;30.00;;;11.48;;
77612;SDS011;66777;52.282;5.960;2023-02-12T09:23:45;30.30;;;12.02;;
77612;SDS011;66777;52.282;5.960;2023-02-12T09:26:12;31.55;;;12.10;;
77612;SDS011;66777;52.282;5.960;2023-02-12T09:28:40;27.73;;;11.32;;
77612;SDS011;66777;52.282;5.960;2023-02-12T09:31:07;26.38;;;10.88;;
77612;SDS011;66777;52.282;5.960;2023-02-12T09:33:35;26.80;;;10.90;;
77612;SDS011;66777;52.282;5.960;2023-02-12T09:36:05;26.83;;;11.85;;
77612;SDS011;66777;52.282;5.960;2023-02-12T09:38:36;28.15;;;11.27;;
77612;SDS011;66777;52.282;5.960;2023-02-12T09:46:57;30.50;;;12.35;;
77612;SDS011;66777;52.282;5.960;2023-02-12T09:52:45;33.00;;;13.80;;
77612;SDS011;66777;52.282;5.960;2023-02-12T09:55:16;25.88;;;12.10;;
77612;SDS011;66777;52.282;5.960;2023-02-12T09:57:43;29.27;;;12.48;;
77612;SDS011;66777;52.282;5.960;2023-02-12T10:05:32;30.98;;;12.70;;
77612;SDS011;66777;52.282;5.960;2023-02-12T10:09:09;27.77;;;11.13;;
77612;SDS011;66777;52.282;5.960;2023-02-12T10:16:37;24.63;;;9.82;;
77612;SDS011;66777;52.282;5.960;2023-02-12T10:19:26;27.23;;;10.98;;
77612;SDS011;66777;52.282;5.960;2023-02-12T10:22:27;24.48;;;10.50;;
77612;SDS011;66777;52.282;5.960;2023-02-12T10:25:25;24.05;;;10.00;;
77612;SDS011;66777;52.282;5.960;2023-02-12T10:27:53;24.75;;;9.77;;
77612;SDS011;66777;52.282;5.960;2023-02-12T10:30:25;24.13;;;9.98;;
77612;SDS011;66777;52.282;5.960;2023-02-12T10:33:00;23.73;;;10.07;;
77612;SDS011;66777;52.282;5.960;2023-02-12T10:35:29;26.75;;;9.90;;
77612;SDS011;66777;52.282;5.960;2023-02-12T10:37:59;22.08;;;9.48;;
77612;SDS011;66777;52.282;5.960;2023-02-12T10:40:37;23.23;;;8.00;;
77612;SDS011;66777;52.282;5.960;2023-02-12T10:43:09;19.65;;;8.27;;
77612;SDS011;66777;52.282;5.960;2023-02-12T10:45:39;18.95;;;8.55;;
77612;SDS011;66777;52.282;5.960;2023-02-12T10:48:15;19.83;;;9.20;;
77612;SDS011;66777;52.282;5.960;2023-02-12T11:01:36;23.50;;;9.45;;
77612;SDS011;66777;52.282;5.960;2023-02-12T11:04:19;17.80;;;7.10;;
77612;SDS011;66777;52.282;5.960;2023-02-12T11:07:01;16.42;;;9.05;;
77612;SDS011;66777;52.282;5.960;2023-02-12T11:09:30;20.95;;;8.93;;
77612;SDS011;66777;52.282;5.960;2023-02-12T11:12:00;21.33;;;8.77;;
77612;SDS011;66777;52.282;5.960;2023-02-12T11:14:27;20.60;;;8.38;;
77612;SDS011;66777;52.282;5.960;2023-02-12T11:16:55;21.55;;;10.50;;
77612;SDS011;66777;52.282;5.960;2023-02-12T11:19:23;21.45;;;9.43;;
77612;SDS011;66777;52.282;5.960;2023-02-12T11:22:11;23.00;;;9.38;;
77612;SDS011;66777;52.282;5.960;2023-02-12T11:24:43;19.98;;;9.25;;
77612;SDS011;66777;52.282;5.960;2023-02-12T11:29:39;23.95;;;9.25;;
77612;SDS011;66777;52.282;5.960;2023-02-12T11:32:07;17.58;;;8.13;;
77612;SDS011;66777;52.282;5.960;2023-02-12T11:34:39;22.83;;;9.13;;
77612;SDS011;66777;52.282;5.960;2023-02-12T11:37:04;18.33;;;8.15;;
77612;SDS011;66777;52.282;5.960;2023-02-12T11:39:41;21.20;;;8.43;;
77612;SDS011;66777;52.282;5.960;2023-02-12T11:44:42;18.02;;;6.90;;
77612;SDS011;66777;52.282;5.960;2023-02-12T11:47:17;15.27;;;6.35;;
77612;SDS011;66777;52.282;5.960;2023-02-12T11:49:50;16.80;;;6.35;;
77612;SDS011;66777;52.282;5.960;2023-02-12T11:52:23;13.32;;;5.93;;
77612;SDS011;66777;52.282;5.960;2023-02-12T11:54:52;11.88;;;5.10;;
77612;SDS011;66777;52.282;5.960;2023-02-12T11:57:36;14.27;;;6.22;;
77612;SDS011;66777;52.282;5.960;2023-02-12T12:02:47;12.57;;;4.78;;
77612;SDS011;66777;52.282;5.960;2023-02-12T12:07:52;12.20;;;4.90;;
77612;SDS011;66777;52.282;5.960;2023-02-12T12:10:30;11.95;;;4.93;;
77612;SDS011;66777;52.282;5.960;2023-02-12T12:13:03;15.02;;;5.28;;
77612;SDS011;66777;52.282;5.960;2023-02-12T12:15:39;9.70;;;4.68;;
77612;SDS011;66777;52.282;5.960;2023-02-12T12:18:33;11.27;;;5.22;;
77612;SDS011;66777;52.282;5.960;2023-02-12T12:24:05;14.25;;;5.63;;
77612;SDS011;66777;52.282;5.960;2023-02-12T12:26:39;13.48;;;5.65;;
77612;SDS011;66777;52.282;5.960;2023-02-12T12:31:39;16.58;;;7.32;;
77612;SDS011;66777;52.282;5.960;2023-02-12T12:34:22;15.60;;;6.45;;
77612;SDS011;66777;52.282;5.960;2023-02-12T12:39:31;17.25;;;7.03;;
77612;SDS011;66777;52.282;5.960;2023-02-12T12:45:18;17.27;;;7.43;;
77612;SDS011;66777;52.282;5.960;2023-02-12T12:53:23;18.80;;;8.32;;
77612;SDS011;66777;52.282;5.960;2023-02-12T12:56:01;21.05;;;8.32;;
77612;SDS011;66777;52.282;5.960;2023-02-12T12:58:43;19.52;;;9.90;;
77612;SDS011;66777;52.282;5.960;2023-02-12T13:07:06;18.67;;;7.60;;
77612;SDS011;66777;52.282;5.960;2023-02-12T13:09:44;20.08;;;9.48;;
77612;SDS011;66777;52.282;5.960;2023-02-12T13:13:23;23.02;;;9.05;;
77612;SDS011;66777;52.282;5.960;2023-02-12T13:15:40;21.95;;;8.55;;
77612;SDS011;66777;52.282;5.960;2023-02-12T13:24:37;18.50;;;7.22;;
77612;SDS011;66777;52.282;5.960;2023-02-12T13:27:42;19.88;;;7.95;;
77612;SDS011;66777;52.282;5.960;2023-02-12T13:30:50;19.83;;;7.72;;
77612;SDS011;66777;52.282;5.960;2023-02-12T13:33:11;21.02;;;8.35;;
77612;SDS011;66777;52.282;5.960;2023-02-12T13:35:52;19.35;;;8.27;;
77612;SDS011;66777;52.282;5.960;2023-02-12T13:38:41;20.70;;;9.68;;
77612;SDS011;66777;52.282;5.960;2023-02-12T13:41:15;19.08;;;7.93;;
77612;SDS011;66777;52.282;5.960;2023-02-12T13:51:56;18.35;;;8.63;;
77612;SDS011;66777;52.282;5.960;2023-02-12T13:57:00;20.65;;;7.35;;
77612;SDS011;66777;52.282;5.960;2023-02-12T14:04:45;17.10;;;7.47;;
77612;SDS011;66777;52.282;5.960;2023-02-12T14:07:19;19.08;;;9.02;;
77612;SDS011;66777;52.282;5.960;2023-02-12T14:10:07;16.58;;;6.45;;
77612;SDS011;66777;52.282;5.960;2023-02-12T14:12:33;22.13;;;8.95;;
77612;SDS011;66777;52.282;5.960;2023-02-12T14:15:07;17.55;;;7.60;;
77612;SDS011;66777;52.282;5.960;2023-02-12T14:17:48;16.85;;;6.68;;
77612;SDS011;66777;52.282;5.960;2023-02-12T14:20:35;18.05;;;7.63;;
77612;SDS011;66777;52.282;5.960;2023-02-12T14:38:56;19.65;;;8.20;;
77612;SDS011;66777;52.282;5.960;2023-02-12T14:41:24;20.85;;;8.15;;
77612;SDS011;66777;52.282;5.960;2023-02-12T14:46:56;20.63;;;7.38;;
77612;SDS011;66777;52.282;5.960;2023-02-12T14:57:27;18.08;;;6.60;;
77612;SDS011;66777;52.282;5.960;2023-02-12T15:00:00;20.60;;;7.22;;
77612;SDS011;66777;52.282;5.960;2023-02-12T15:07:59;22.55;;;7.90;;
77612;SDS011;66777;52.282;5.960;2023-02-12T15:10:54;17.98;;;7.15;;
77612;SDS011;66777;52.282;5.960;2023-02-12T15:13:29;19.77;;;7.63;;
77612;SDS011;66777;52.282;5.960;2023-02-12T15:16:08;22.92;;;7.85;;
77612;SDS011;66777;52.282;5.960;2023-02-12T15:18:43;18.70;;;7.70;;
77612;SDS011;66777;52.282;5.960;2023-02-12T15:21:26;21.90;;;8.23;;
77612;SDS011;66777;52.282;5.960;2023-02-12T15:24:03;26.25;;;9.48;;
77612;SDS011;66777;52.282;5.960;2023-02-12T15:26:55;20.88;;;10.02;;
77612;SDS011;66777;52.282;5.960;2023-02-12T15:29:27;18.27;;;7.07;;
77612;SDS011;66777;52.282;5.960;2023-02-12T15:31:58;16.17;;;7.25;;
77612;SDS011;66777;52.282;5.960;2023-02-12T15:34:27;18.38;;;7.25;;
77612;SDS011;66777;52.282;5.960;2023-02-12T15:36:56;20.05;;;7.90;;
77612;SDS011;66777;52.282;5.960;2023-02-12T15:39:24;19.38;;;7.03;;
77612;SDS011;66777;52.282;5.960;2023-02-12T15:41:53;16.73;;;7.15;;
77612;SDS011;66777;52.282;5.960;2023-02-12T15:44:25;18.65;;;6.80;;
77612;SDS011;66777;52.282;5.960;2023-02-12T15:49:40;19.17;;;6.80;;
77612;SDS011;66777;52.282;5.960;2023-02-12T15:52:16;18.23;;;6.95;;
77612;SDS011;66777;52.282;5.960;2023-02-12T15:54:45;20.05;;;7.05;;
77612;SDS011;66777;52.282;5.960;2023-02-12T15:57:13;15.68;;;6.80;;
77612;SDS011;66777;52.282;5.960;2023-02-12T15:59:56;19.52;;;7.53;;
77612;SDS011;66777;52.282;5.960;2023-02-12T16:02:30;17.15;;;7.03;;
77612;SDS011;66777;52.282;5.960;2023-02-12T16:04:59;17.67;;;6.68;;
77612;SDS011;66777;52.282;5.960;2023-02-12T16:07:29;20.30;;;7.07;;
77612;SDS011;66777;52.282;5.960;2023-02-12T16:09:59;19.48;;;6.85;;
77612;SDS011;66777;52.282;5.960;2023-02-12T16:12:28;17.42;;;7.53;;
77612;SDS011;66777;52.282;5.960;2023-02-12T16:14:57;18.08;;;6.45;;
77612;SDS011;66777;52.282;5.960;2023-02-12T16:17:28;16.25;;;6.70;;
77612;SDS011;66777;52.282;5.960;2023-02-12T16:19:58;15.75;;;6.60;;
77612;SDS011;66777;52.282;5.960;2023-02-12T16:22:42;15.88;;;6.50;;
77612;SDS011;66777;52.282;5.960;2023-02-12T16:25:17;21.23;;;8.10;;
77612;SDS011;66777;52.282;5.960;2023-02-12T16:30:32;18.80;;;7.68;;
77612;SDS011;66777;52.282;5.960;2023-02-12T16:33:03;20.58;;;7.43;;
77612;SDS011;66777;52.282;5.960;2023-02-12T16:35:30;21.35;;;8.05;;
77612;SDS011;66777;52.282;5.960;2023-02-12T16:43:46;19.92;;;7.47;;
77612;SDS011;66777;52.282;5.960;2023-02-12T16:46:13;22.17;;;7.55;;
77612;SDS011;66777;52.282;5.960;2023-02-12T16:48:43;18.52;;;7.43;;
77612;SDS011;66777;52.282;5.960;2023-02-12T16:51:32;18.73;;;7.22;;
77612;SDS011;66777;52.282;5.960;2023-02-12T16:54:00;21.08;;;7.10;;
77612;SDS011;66777;52.282;5.960;2023-02-12T16:56:30;16.80;;;6.32;;
77612;SDS011;66777;52.282;5.960;2023-02-12T16:58:59;20.75;;;7.65;;
77612;SDS011;66777;52.282;5.960;2023-02-12T17:03:53;18.55;;;7.13;;
77612;SDS011;66777;52.282;5.960;2023-02-12T17:06:23;19.00;;;6.82;;
77612;SDS011;66777;52.282;5.960;2023-02-12T17:08:51;18.95;;;6.50;;
77612;SDS011;66777;52.282;5.960;2023-02-12T17:11:17;21.15;;;7.70;;
77612;SDS011;66777;52.282;5.960;2023-02-12T17:13:45;20.65;;;6.97;;
77612;SDS011;66777;52.282;5.960;2023-02-12T17:16:13;18.05;;;7.20;;
77612;SDS011;66777;52.282;5.960;2023-02-12T17:18:39;19.58;;;7.45;;
77612;SDS011;66777;52.282;5.960;2023-02-12T17:21:28;21.33;;;7.38;;
77612;SDS011;66777;52.282;5.960;2023-02-12T17:24:02;19.02;;;7.38;;
77612;SDS011;66777;52.282;5.960;2023-02-12T17:26:28;21.05;;;7.95;;
77612;SDS011;66777;52.282;5.960;2023-02-12T17:28:54;22.75;;;7.80;;
77612;SDS011;66777;52.282;5.960;2023-02-12T17:31:20;19.42;;;8.05;;
77612;SDS011;66777;52.282;5.960;2023-02-12T17:33:47;17.77;;;6.35;;
77612;SDS011;66777;52.282;5.960;2023-02-12T17:36:13;20.00;;;7.68;;
77612;SDS011;66777;52.282;5.960;2023-02-12T17:38:38;19.52;;;6.75;;
77612;SDS011;66777;52.282;5.960;2023-02-12T17:41:08;18.95;;;7.70;;
77612;SDS011;66777;52.282;5.960;2023-02-12T17:43:34;18.27;;;8.48;;
77612;SDS011;66777;52.282;5.960;2023-02-12T17:46:00;19.13;;;7.57;;
77612;SDS011;66777;52.282;5.960;2023-02-12T17:48:26;20.13;;;7.28;;
77612;SDS011;66777;52.282;5.960;2023-02-12T17:50:53;24.48;;;8.25;;